• Join FlightAware (Why Join?)
  • Login
  • US Flag 
10:17PM EDT


 

Airport Tracker/Info


-or-


 

Live Flight TrackerFlight Track Log ✈ N364AC ✈ 01-Dec-2013 ✈ KAPF - KCTJ

Flight Track Log - Related Links

Times and Time Zones

All times are in EST time to prevent confusion due to time zone crossing. See the N364AC flight status page for this flight to view local times or setup timezone preferences in your user account.

Time Position Orientation Groundspeed Altitude Reporting Facility
EST Latitude Longitude Course Direction KTS MPH feet Rate Location/Type
11:47AM 26.3626 -81.8636 355° North  Level Estimated
11:48AM 26.4075 -81.8638 360° North  Level FlightAware Approximate
11:49AM 26.4524 -81.8640 360° North  Level FlightAware Approximate
11:50AM 26.4973 -81.8642 360° North  Level FlightAware Approximate
11:51AM 26.5422 -81.8644 360° North  Level FlightAware Approximate
11:52AM 26.5871 -81.8645 360° North  Level FlightAware Approximate
11:53AM 26.6320 -81.8647 360° North  Level FlightAware Approximate
11:54AM 26.6769 -81.8649 360° North  Level FlightAware Approximate
11:55AM 26.7218 -81.8651 360° North  Level FlightAware Approximate
11:56AM 26.7667 -81.8653 360° North  Level FlightAware Approximate
11:57AM 26.8116 -81.8655 360° North  Level FlightAware Approximate
11:58AM 26.8565 -81.8657 360° North  Level FlightAware Approximate
11:58AM 26.7508 -81.9136 345° North 156 180 5,900  Level Miami Center
11:59AM 26.8982 -81.8845 354° North  Level Estimated
11:59AM 26.7942 -81.9294 342° North 156 180 5,900  Level Miami Center
12:00PM 26.9431 -81.8843 North  Level FlightAware Approximate
12:00PM 26.8333 -81.9450 340° North 165 190 5,900  Level Miami Center
12:01PM 26.9880 -81.8842 North  Level FlightAware Approximate
12:01PM 26.8747 -81.9561 347° North 159 183 5,900  Level Miami Center
12:02PM 27.0295 -81.9032 336° Northwest  Level Estimated
12:02PM 26.9161 -81.9625 352° North 159 183 5,900  Level Miami Center
12:03PM 27.0729 -81.9162 345° North  Level FlightAware Approximate
12:03PM 26.9556 -81.9667 355° North 159 183 5,900  Level Miami Center
12:04PM 27.1163 -81.9292 345° North  Level FlightAware Approximate
12:04PM 26.9992 -81.9733 352° North 159 183 5,900  Level Miami Center
12:05PM 27.0489 -81.9825 351° North 159 183 5,900  Level Miami Center
12:06PM 27.0947 -81.9892 353° North 159 183 5,900  Level Miami Center
12:07PM 27.1383 -81.9958 352° North 159 183 5,900  Level Miami Center
12:08PM 27.1819 -82.0000 355° North 159 183 5,900  Level Miami Center
12:09PM 27.2278 -81.9997 360° North 159 183 5,900  Level Miami Center
12:10PM 27.2739 -81.9994 360° North 159 183 5,900  Level Miami Center
12:11PM 27.3197 -82.0014 358° North 159 183 5,900  Level Miami Center
12:12PM 27.3678 -82.0011 360° North 159 183 5,900  Level Miami Center
12:13PM 27.4136 -82.0033 358° North 159 183 5,900  Level Miami Center
12:14PM 27.4594 -82.0031 360° North 159 183 5,900  Level Miami Center
12:15PM 27.5075 -82.0028 360° North 159 183 5,900  Level Miami Center
12:16PM 27.5450 -81.9997 North 159 183 5,900  Level Miami Center
12:17PM 27.5992 -82.0022 358° North 159 183 5,900  Level Miami Center
12:18PM 27.6472 -82.0019 360° North 164 189 5,900  Level Miami Center
12:19PM 27.6931 -82.0064 355° North 164 189 5,900  Level Miami Center
12:20PM 27.7347 -82.0061 360° North 157 181 5,900  Level Miami Center
12:21PM 27.7847 -82.0058 360° North 162 186 5,900  Level Miami Center
12:22PM 27.8328 -82.0081 358° North 168 193 5,900  Level Miami Center
12:23PM 27.8786 -82.0103 358° North 168 193 5,900  Level Miami Center
12:24PM 27.9267 -82.0100 360° North 168 193 5,900  Level Miami Center
12:25PM 27.9744 -82.0122 358° North 168 193 5,900  Level Miami Center
12:27PM 28.0333 -82.0333 342° North 174 200 5,900  Level Tampa TRACON
12:28PM 28.0833 -82.0667 330° Northwest 175 201 5,900  Level Tampa TRACON
12:29PM 28.1333 -82.0833 344° North 174 200 5,900  Level Tampa TRACON
12:30PM 28.1833 -82.0833 360° North 174 200 5,900  Level Tampa TRACON
12:31PM 28.2167 -82.1000 336° Northwest 172 198 5,900  Level Tampa TRACON
12:32PM 28.2667 -82.1000 360° North 172 198 5,900  Level Tampa TRACON
12:33PM 28.3167 -82.1167 344° North 174 200 5,900  Level Tampa TRACON
12:34PM 28.3667 -82.1333 344° North 172 198 6,000  Climbing Tampa TRACON
12:35PM 28.4000 -82.1667 319° Northwest 175 201 5,900 -60 Descending Tampa TRACON
12:36PM 28.4500 -82.1833 344° North 175 201 5,900  Level Tampa TRACON
12:37PM 28.5000 -82.2000 344° North 176 203 6,000  Climbing Tampa TRACON
12:38PM 28.5553 -82.2378 329° Northwest 176 203 6,000 -60 Level Jacksonville Center
12:39PM 28.5969 -82.2589 336° Northwest 176 203 5,900 -60 Descending Jacksonville Center
12:40PM 28.6408 -82.2800 337° Northwest 175 201 5,900  Level Jacksonville Center
12:41PM 28.6911 -82.3081 334° Northwest 174 200 6,000  Climbing Jacksonville Center
12:42PM 28.7350 -82.3314 335° Northwest 173 199 6,000  Level Jacksonville Center
12:43PM 28.7811 -82.3550 336° Northwest 172 198 6,000  Level Jacksonville Center
12:44PM 28.8250 -82.3806 333° Northwest 173 199 6,000 -60 Level Jacksonville Center
12:45PM 28.8689 -82.4042 335° Northwest 174 200 5,900 -60 Descending Jacksonville Center
12:46PM 28.9108 -82.4278 334° Northwest 172 198 5,900  Level Jacksonville Center
12:47PM 28.9611 -82.4558 334° Northwest 172 198 5,900  Level Jacksonville Center
12:48PM 29.0008 -82.4772 335° Northwest 173 199 6,000  Climbing Jacksonville Center
12:49PM 29.0508 -82.5031 336° Northwest 172 198 6,000 -60 Level Jacksonville Center
12:50PM 29.0928 -82.5314 329° Northwest 174 200 5,900 -60 Descending Jacksonville Center
12:51PM 29.1325 -82.5503 337° Northwest 171 197 5,900  Level Jacksonville Center
12:52PM 29.1764 -82.5739 335° Northwest 170 196 6,000  Climbing Jacksonville Center
12:53PM 29.2264 -82.5975 338° Northwest 173 199 6,000  Level Jacksonville Center
12:55PM 29.2725 -82.6258 332° Northwest 171 197 6,000 -60 Level Jacksonville Center
12:55PM 29.3100 -82.6472 334° Northwest 172 198 5,900 -60 Descending Jacksonville Center
12:57PM 29.3706 -82.6542 354° North 179 206 5,900  Level Jacksonville Center
12:58PM 29.4144 -82.6589 355° North 176 203 6,000  Climbing Jacksonville Center
12:59PM 29.4625 -82.6636 355° North 176 203 6,000  Level Jacksonville Center
01:00PM 29.5147 -82.6731 351° North 175 201 6,000 -60 Level Jacksonville Center
01:01PM 29.5606 -82.6778 355° North 175 201 5,900 -60 Descending Jacksonville Center
01:01PM 29.6025 -82.6800 357° North 177 204 5,900  Level Jacksonville Center
01:02PM 29.6150 -82.6847 342° North 176 203 5,900  Level Jacksonville Center
01:02PM 29.6525 -82.6847 360° North 177 204 5,900 60 Level Jacksonville Center
01:03PM 29.6589 -82.6869 343° North 177 204 6,000  Climbing Jacksonville Center
01:03PM 29.6986 -82.7014 342° North 189 217 5,900 -60 Descending Jacksonville Center
01:04PM 29.7403 -82.7250 334° Northwest 183 211 5,900  Level Jacksonville Center
01:05PM 29.7842 -82.7489 335° Northwest 172 198 5,900  Level Jacksonville Center
01:06PM 29.8258 -82.7753 331° Northwest 172 198 5,900  Level Jacksonville Center
01:07PM 29.8678 -82.8017 331° Northwest 172 198 5,900  Level Jacksonville Center
01:08PM 29.9094 -82.8278 331° Northwest 167 192 5,900  Level Jacksonville Center
01:09PM 29.9533 -82.8519 334° Northwest 167 192 5,900  Level Jacksonville Center
01:10PM 29.9950 -82.8758 334° Northwest 167 192 5,900  Level Jacksonville Center
01:11PM 30.0369 -82.9022 331° Northwest 167 192 5,900  Level Jacksonville Center
01:12PM 30.0786 -82.9286 331° Northwest 167 192 5,900  Level Jacksonville Center
01:13PM 30.1203 -82.9525 334° Northwest 167 192 5,900  Level Jacksonville Center
01:14PM 30.1622 -82.9792 331° Northwest 167 192 5,900  Level Jacksonville Center
01:15PM 30.2017 -83.0031 332° Northwest 167 192 5,900  Level Jacksonville Center
01:16PM 30.2436 -83.0272 334° Northwest 167 192 5,900 60 Level Jacksonville Center
01:17PM 30.2686 -83.0442 330° Northwest 167 192 6,000  Climbing Jacksonville Center
01:17PM 30.2853 -83.0514 339° North 167 192 5,900  Descending Jacksonville Center
01:18PM 30.2956 -83.0611 321° Northwest 165 190 6,000  Climbing Jacksonville Center
01:18PM 30.3269 -83.0756 338° Northwest 167 192 5,900  Descending Jacksonville Center
01:19PM 30.3311 -83.0803 316° Northwest 167 192 6,000 120 Climbing Jacksonville Center
01:20PM 30.3728 -83.1069 331° Northwest 168 193 6,100 -60 Climbing Jacksonville Center
01:20PM 30.4083 -83.1261 335° Northwest 167 192 5,900 -120 Descending Jacksonville Center
01:21PM 30.4144 -83.1333 314° West 170 196 6,000  Climbing Jacksonville Center
01:21PM 30.4519 -83.1528 336° Northwest 167 192 5,900  Descending Jacksonville Center
01:22PM 30.4583 -83.1600 316° Northwest 170 196 6,000  Climbing Jacksonville Center
01:22PM 30.4917 -83.1769 336° Northwest 167 192 5,900  Descending Jacksonville Center
01:23PM 30.5000 -83.1842 323° Northwest 170 196 6,000  Climbing Jacksonville Center
01:23PM 30.5356 -83.2014 337° Northwest 167 192 5,900  Descending Jacksonville Center
01:24PM 30.5439 -83.2086 323° Northwest 170 196 6,000  Climbing Jacksonville Center
01:24PM 30.5792 -83.2303 332° Northwest 167 192 5,900  Descending Jacksonville Center
01:25PM 30.5856 -83.2353 326° Northwest 171 197 6,000  Climbing Jacksonville Center
01:25PM 30.6189 -83.2547 333° Northwest 167 192 5,900  Descending Jacksonville Center
01:26PM 30.6292 -83.2619 329° Northwest 170 196 6,000  Climbing Jacksonville Center
01:26PM 30.6606 -83.2767 338° Northwest 167 192 5,900  Descending Jacksonville Center
01:27PM 30.6708 -83.2861 322° Northwest 168 193 6,000 60 Climbing Jacksonville Center
01:28PM 30.7128 -83.3131 331° Northwest 167 192 6,000  Level Jacksonville Center
01:29PM 30.7522 -83.3375 332° Northwest 167 192 6,000  Level Jacksonville Center
01:30PM 30.8003 -83.3642 335° Northwest 166 191 6,000  Level Jacksonville Center
01:31PM 30.8417 -83.3933 329° Northwest 166 191 6,000  Level Jacksonville Center
01:32PM 30.8814 -83.4153 335° Northwest 167 192 6,000  Level Jacksonville Center
01:33PM 30.9250 -83.4422 332° Northwest 167 192 6,000  Level Jacksonville Center
01:34PM 30.9647 -83.4667 332° Northwest 166 191 6,000  Level Jacksonville Center
01:35PM 31.0064 -83.4889 335° Northwest 165 190 6,000 -120 Level Jacksonville Center
01:35PM 31.0314 -83.5011 337° Northwest 164 189 5,900 60 Descending Jacksonville Center
01:36PM 31.0481 -83.5158 323° Northwest 164 189 6,100  Climbing Jacksonville Center
01:36PM 31.0689 -83.5281 333° Northwest 164 189 5,900  Descending Jacksonville Center
01:37PM 31.0856 -83.5378 333° Northwest 164 189 6,100  Climbing Jacksonville Center
01:37PM 31.1103 -83.5550 329° Northwest 164 189 5,900 -120 Descending Jacksonville Center
01:38PM 31.1228 -83.5625 333° Northwest 162 186 6,000  Climbing Jacksonville Center
01:38PM 31.1500 -83.5772 335° Northwest 164 189 5,900  Descending Jacksonville Center
01:39PM 31.1686 -83.5894 331° Northwest 161 185 6,000  Climbing Jacksonville Center
01:39PM 31.1833 -83.5969 336° Northwest 159 183 5,900 60 Descending Jacksonville Center
01:40PM 31.2103 -83.6142 331° Northwest 162 186 6,100  Climbing Jacksonville Center
01:40PM 31.2292 -83.6264 331° Northwest 159 183 5,900 -120 Descending Jacksonville Center
01:41PM 31.2478 -83.6386 331° Northwest 161 185 6,000  Climbing Jacksonville Center
01:41PM 31.2686 -83.6486 338° Northwest 159 183 5,900 60 Descending Jacksonville Center
01:42PM 31.2872 -83.6633 326° Northwest 163 188 6,100  Climbing Jacksonville Center
01:42PM 31.3103 -83.6781 331° Northwest 175 201 5,900 -180 Descending Jacksonville Center
01:43PM 31.3433 -83.6953 336° Northwest 175 201 5,900  Level Jacksonville Center
01:44PM 31.3831 -83.7225 330° Northwest 170 196 5,900  Level Jacksonville Center
01:45PM 31.4244 -83.7447 335° Northwest 164 189 5,900  Level Jacksonville Center
01:46PM 31.4619 -83.7694 331° Northwest 159 183 5,900  Level Jacksonville Center
01:47PM 31.5014 -83.7942 332° Northwest 159 183 5,900  Level Jacksonville Center
01:48PM 31.5431 -83.8189 333° Northwest 159 183 5,900  Level Jacksonville Center
01:49PM 31.5806 -83.8436 331° Northwest 159 183 5,900  Level Jacksonville Center
01:50PM 31.6200 -83.8686 332° Northwest 159 183 5,900  Level Jacksonville Center
01:51PM 31.6594 -83.8908 334° Northwest 159 183 5,900  Level Jacksonville Center
01:52PM 31.6989 -83.9158 332° Northwest 164 189 6,000  Climbing Jacksonville Center
01:53PM 31.7383 -83.9406 332° Northwest 164 189 5,900 -60 Descending Jacksonville Center
01:54PM 31.7778 -83.9656 332° Northwest 164 189 5,900  Level Jacksonville Center
01:56PM 31.8667 -84.0167 334° Northwest 162 186 5,900  Level Atlanta TRACON
01:57PM 31.9000 -84.0333 337° Northwest 164 189 5,900  Level Atlanta TRACON
01:58PM 31.9333 -84.0667 320° Northwest 162 186 5,900  Level Atlanta TRACON
01:59PM 31.9833 -84.0833 344° North 160 184 6,000  Climbing Atlanta TRACON
02:00PM 32.0167 -84.1167 320° Northwest 161 185 5,900 -60 Descending Atlanta TRACON
02:01PM 32.0667 -84.1333 344° North 159 183 5,900  Level Atlanta TRACON
02:02PM 32.1000 -84.1667 320° Northwest 165 190 5,900  Level Atlanta TRACON
02:03PM 32.1333 -84.1833 337° Northwest 165 190 6,000  Climbing Atlanta TRACON
02:04PM 32.1833 -84.2167 331° Northwest 166 191 5,900 -60 Descending Atlanta TRACON
02:05PM 32.2333 -84.2500 331° Northwest 163 188 5,900  Level Atlanta TRACON
02:06PM 32.2667 -84.2667 337° Northwest 165 190 5,900  Level Atlanta TRACON
02:07PM 32.3000 -84.3000 320° Northwest 165 190 6,000  Climbing Atlanta TRACON
02:08PM 32.3500 -84.3167 344° North 164 189 6,000 -60 Level Atlanta TRACON
02:09PM 32.3833 -84.3500 320° Northwest 164 189 5,900 -60 Descending Atlanta TRACON
02:10PM 32.4167 -84.3667 337° Northwest 164 189 5,900  Level Atlanta TRACON
02:11PM 32.4667 -84.4000 331° Northwest 164 189 5,900  Level Atlanta TRACON
02:12PM 32.5000 -84.4167 337° Northwest 165 190 5,900  Level Atlanta TRACON
02:13PM 32.5500 -84.4500 331° Northwest 167 192 5,900  Level Atlanta TRACON
02:14PM 32.5833 -84.4667 337° Northwest 164 189 5,900  Level Atlanta TRACON
02:15PM 32.6333 -84.5000 331° Northwest 166 191 5,900  Level Atlanta TRACON
02:16PM 32.6667 -84.5167 337° Northwest 161 185 5,900  Level Atlanta TRACON
02:17PM 32.7000 -84.5500 320° Northwest 167 192 6,000 -60 Climbing Atlanta TRACON
02:18PM 32.7500 -84.5833 331° Northwest 168 193 5,800 -360 Descending Atlanta TRACON
02:19PM 32.7833 -84.6000 337° Northwest 183 211 5,300 -420 Descending Atlanta TRACON
02:20PM 32.8333 -84.6333 331° Northwest 174 200 5,000 -180 Descending Atlanta TRACON
02:21PM 32.8667 -84.6667 320° Northwest 170 196 5,000  Level Atlanta TRACON
02:22PM 32.9167 -84.6833 344° North 166 191 5,000  Level Atlanta TRACON
02:23PM 32.9500 -84.7167 320° Northwest 160 184 5,100  Climbing Atlanta TRACON
02:24PM 33.0000 -84.7333 344° North 160 184 5,000 -60 Descending Atlanta TRACON
02:25PM 33.0333 -84.7667 320° Northwest 158 182 5,000  Level Atlanta TRACON
02:26PM 33.0667 -84.7833 337° Northwest 159 183 5,100 -60 Climbing Atlanta TRACON
02:27PM 33.1167 -84.8167 331° Northwest 160 184 4,900 -360 Descending Atlanta TRACON
02:28PM 33.1500 -84.8333 337° Northwest 165 190 4,400 -540 Descending Atlanta TRACON
02:29PM 33.1833 -84.8667 320° Northwest 162 186 3,900 -240 Descending Atlanta TRACON
02:30PM 33.2333 -84.8833 344° North 157 181 4,000  Climbing Atlanta TRACON
02:31PM 33.2667 -84.9167 320° Northwest 154 177 4,000  Level Atlanta TRACON
02:32PM 33.3000 -84.9333 337° Northwest 154 177 4,000 -180 Level Atlanta TRACON
02:33PM 33.3333 -84.9667 320° Northwest 158 182 3,700 -300 Descending Atlanta TRACON
02:34PM 33.3833 -85.0000 331° Northwest 161 185 3,400 -420 Descending Atlanta TRACON
02:35PM 33.4167 -85.0000 360° North 172 198 2,900 -540 Descending Atlanta TRACON